Korrekturticker


zurück

2020


10.08.2020DetailPalette | 1:87 | überarbeitet

09.08.2020DetailFahr D 180 H | 2 | 1:80 | Korrektur: Ansaugrohr statt Auspuffrohr

06.08.2020DetailSchaufel | 2 | 1:87 | überarbeitet

06.08.2020DetailSchaufel | 1 | 1:87 | überarbeitet

02.08.2020DetailAbschleppstange | 1:87 | überarbeitet

01.08.2020DetailNummernindex aktualisiert

01.08.2020DetailTrabant P 601 | 1:87 | 129A-8-2 Modell-Car Zenker Auftragsmodell Fehlmontage

01.08.2020DetailMagirus S 3500 Pritschenlastzug | 1:90 | 420A-23-1 Idee + Spiel Auftragsmodell

01.08.2020DetailMB LPS 333 Flüssiggastanksattelzug | 1:90 | 805A-15-1 PMS Serie 800 -114-

01.08.2020DetailMagirus 150 D 10 Löschgruppenfahrzeug LF 16 | 1:87 | Feuerwehr 863A-14-1 PMS WVM 87

01.08.2020DetailMB 260 D | 1:87 | 832A-11-1 PMS WVM 87

26.07.2020DetailFord Taunus 12 M 52 | 1 | 1:90 | 200-4-2 jetzt mit Fotos

25.07.2020DetailMAN 26.256 DFS Pritschensattelzug | 1:90 | 535A-6-1 jetzt mit Fotos

25.07.2020DetailMB NG 2235 Pritschenlastzug | 1:90 | 456-4-2 jetzt mit Fotos

25.07.2020DetailPlywoodcontainer 40 ft | 1:90 | 1520-4-3 Bestandteil der Zubehörpackung Container 9

25.07.2020DetailOpen-Top-Container 20 ft | 1 | 1:90 | 1526-6-1 Bestandteil der Zubehörpackung Container 9

25.07.2020DetailPlywoodcontainer 20 ft | 1 | 1:90 | 1525-6-5 Bestandteil der Zubehörpackung Container 9

25.07.2020DetailBallastgewicht | 1 | 1:87 | 1661-9-1 jetzt mit Foto

21.07.2020DetailAufsetztank | 2 | 1:87 | überarbeitet

18.07.2020DetailMB SK 2544 Getränkekofferlastzug | 1:87 | 561A-3-1 jetzt mit Fotos

18.07.2020DetailHenschel HS 140 S Kühlkoffersattelzug | 1:100 | überarbeitet

18.07.2020DetailVW 1600 TL | 1:90 | 043-5-3 Abbildung korrigiert

13.07.2020DetailMB O 305 G Schubgelenkbus | 1:90 | überarbeitet

12.07.2020DetailMB O 305 G Schubgelenkbus | 1:90 | Post überarbeitet
12.07.2020DetailNummernindex aktualisiert

12.07.2020DetailMagirus Mercur 125 Drehleiter DL 30 | 1:90 | Feuerwehr 620-29-3 + 620-29-4 jetzt mit Fotos

12.07.2020DetailMagirus S 3500 Drehleiter DL 30 | 2 | 1:90 | Feuerwehr 620-21-1 jetzt mit Fotos

12.07.2020DetailVW T1 Kasten | 2 | 1:90 | überarbeitet

09.07.2020DetailOpel Blitz 1,75 t Getränkewagen | 2 | 1:90 | 353A-5-1 PMS WVM 86

09.07.2020DetailJaguar XK 120 OTS | 1:90 | 020A-21-1 PMS WVM 86

09.07.2020DetailMB L 319 Kasten | 1:90 | 265A-11-4 Vedes Auftragsmodell

08.07.2020DetailMB U 1300 | 1:87 | Winterdienst 646A-5-1 + 646-15-1 + 646A-15-1 jetzt mit Fotos

08.07.2020DetailMB U 1700 L | 1:87 | 375A-4-2 jetzt mit Fotos

08.07.2020DetailMB U 1700 L | 1:87 | 375-8-1 jetzt mit neuen Fotos

08.07.2020DetailMB U 1550 L | 1:87 | 375A-5-2 jetzt mit Fotos

08.07.2020DetailMB U 1700 | 1:87 | 374A-2-1 jetzt mit Fotos

07.07.2020DetailNummernindex aktualisiert

07.07.2020DetailSeilwinde | 1 | 1:90 | überarbeitet

07.07.2020DetailMB U 25 | 2 | 1:87 | Doppelbereifung Gespann 368A-3-2 PMS WVM 85 jetzt mit Fotos

06.07.2020DetailVW T1 Kasten | 5 | 1:87 | 797A-1-34 Still Auftragsmodell

06.07.2020DetailMB L 321 Sprengwagen | 1:90 | 640A-24-1 PMS WVM 85 jetzt mit Fotos

05.07.2020DetailNummernindex aktualisiert

05.07.2020DetailPöttinger Jumbo 7210 D Ladewagen | 1:87 | 381-14-2 Modellpflege Juni 2020

05.07.2020DetailHeuladewagen | 1:87 | überarbeitet

05.07.2020DetailAllgaier Anhänger | 1:90 | überarbeitet

05.07.2020DetailBüssing D2U Doppeldeckerbus | 1:90 | 722-12-2 Modellpflege Juni 2020

05.07.2020DetailHenschel HS 3-180 TAK Muldenkipper | 1:87 | 670-14-1 Modellpflege Juni 2020

04.07.2020DetailMB LP 333 Pritschenlastzug | 1:90 | 429-5-1 Modellpflege Juni 2020

04.07.2020DetailMB 190 SL Coupé | 1:90 | 253-10-1 Modellpflege Juni 2020

04.07.2020DetailAlfa Romeo Spider | 1:87 | offen 206-3-1 Modellpflege Juni 2020

04.07.2020DetailAlfa Romeo Spider | 1:87 | geschlossen 206-2-1 jetzt mit Fotos

04.07.2020DetailMB LP 333 Pritschen-Lkw | 1:90 | 429-4-1 Sondermodell SIKU//WIKING Modellwelt

04.07.2020DetailMB L 5000 S Tiefladezug | 1:90 | 492-23-1 Modellpflege Juni 2020

04.07.2020DetailMenck Schaufelbagger | 2 | 1:87 | 897-3-1 Modellpflege Juni 2020

04.07.2020DetailPeterbilt 359 Containersattelzug | 1:87 | 527-19-1 Modellpflege Juni 2020

04.07.2020DetailMB NG 1017 Pritschen-Lkw | 1:90 | 420-22-1 Modellpflege Juni 2020

04.07.2020DetailMB NG 1626 S Hinterkippersattelzug | 1:160 | 948-8-1 Modellpflege Juni 2020

04.07.2020DetailVW T3 Pritsche DK | 1:87 | 293-5-2 Modellpflege Juni 2020

04.07.2020DetailVW 181 | 1:90 | offen 040-15-1 Modellpflege Juni 2020

02.07.2020DetailBüssing 4500 U Pritschenlastzug | 1:90 | 476A-8-2 PMS Serie 800 -113-

01.07.2020DetailLada Niva 4x4 | 1:87 | 208-1-2 Modellpflege Juni 2020

28.06.2020DetailNummernindex aktualisiert

27.06.2020DetailMcCormick Farmall Trecker | 1:90 | überarbeitet

26.06.2020DetailNummernindex aktualisiert

20.06.2020DetailNummernindex aktualisiert

13.06.2020DetailMB NG 1619 S Hinterkippersattelzug | 1:90 | 677A-29-1 Wasmus-Auftragsmodell

07.06.2020DetailVW T1 Kasten | 9 | 1:87 | 788A-5-5 Region im Modell KG-Auftragsmodell

07.06.2020DetailMAN 10.230 T-FS Flachpritschensattelzug | 1:90 | 554A-4-2 PMS Serie 800 -112-

06.06.2020DetailPritschen-Anhänger | 5 | 1:90 | 402A-9-3 ModellCarService-Auftragsmodell

05.06.2020DetailMAN 415 F Pritschenlastzug | 1:90 | 411A-3-2 PMS-Auftragsmodell jetzt mit Fotos

05.06.2020DetailMB 230 G | 1:90 | 266A-7-2 MB-Auftragsmodell jetzt mit Fotos

31.05.2020DetailMB U 70 | 1:90 | 370-18-1 Modellpflege April 2020

31.05.2020DetailFord Continental Mark II | 1:90 | 210A-28-6 Auktionshaus Saure 83. Auktion

31.05.2020DetailMB G-Klasse überarbeitet

31.05.2020DetailNummernindex aktualisiert

30.05.2020DetailNummernindex aktualisiert

28.05.2020DetailNummernindex aktualisiert

28.05.2020DetailBüssing 4500 U Getränkewagen | 1:90 | 560-10-1 Modellpflege April 2020

24.05.2020DetailNummernindex aktualisiert

24.05.2020DetailMB L 406 Kasten | 1 | 1:90 | Wasserrettung Feuerwehr Version 1 überarbeitet

24.05.2020DetailOpel Kadett B | 1:87 | überarbeitet

23.05.2020DetailHenschel HS 190 S BiMot Tanksattelzug | 1:90 | überarbeitet

23.05.2020DetailNummernindex aktualisiert

20.05.2020DetailGroße Marken Edition 2019 PMS-Sammelbox Auslaufmodelle 2019/2020

20.05.2020DetailGroße Marken Edition 2015 PMS-Sammelbox Auslaufmodelle 2019

20.05.2020DetailKrupp LF 806 Pritschenlastzug | 1 | 1:90 | 486A-4-2 + 486A-4-3 Korrektur Farbangabe + Pritschenbodenprägung

20.05.2020DetailMB U 1300 L Tanklöschfahrzeug | 1:87 | Feuerwehr 622A-8-1 Lechtoys Edition 38 jetzt mit Fotos

19.05.2020DetailFendt 942 Vario | 1:87 | 361-12-1 Neuheit Februar 2020

17.05.2020DetailZapfstelle | 2 | 1:90 | überarbeitet

17.05.2020DetailVW T4 Kasten | 1:87 | Fehlende Varianten 10 + 11 + 12 nachgetragen

17.05.2020DetailCitroën 2 CV | 1:87 | offen 809-6-1 jetzt mit Fotos

17.05.2020DetailMagirus 235 D 22 FS Containersattelzug | 1 | 1:90 | 520A-60-1 Lechtoys Edition 55

17.05.2020DetailBüssing Trambus Senator | 1:90 | 721-13-1 Modellpflege April 2020

17.05.2020DetailHanomag-Henschel F 221 S Containersattelzug | 1 | 1:90 | 521-13-1 jetzt mit Fotos

16.05.2020DetailVW T1 Kasten | 10 | 1:160 | 932-2-2 Modellpflege April 2020

16.05.2020DetailMAN TGM 13.290 Löschfahrzeug | 2 | 1:87 | Feuerwehr 612-4-2 Modellpflege April 2020

16.05.2020DetailOpel Manta A | 1:87 | 827-14-1 Modellpflege April 2020

16.05.2020DetailBMW 1600 GT Coupé | 1:87 | 187-5-1 Modellpflege April 2020

16.05.2020DetailTempo Matador Pritsche | 4 | 1:87 | 335-4-1 Modellpflege April 2020

10.05.2020DetailMAN 10.230 T-FS Pritschensattelzug | 1:90 | 514-20-1 Modellpflege April 2020

07.05.2020DetailMagirus 230 D 22 FK Abrollkipper | 1:90 | 645-15-1 Modellpflege April 2020

02.05.2020DetailVW Käfer 1300 | 3 | 1:90 | Post 037-5-2 + 037-6-2 + 037-7-3 jetzt mit Fotos

30.04.2020DetailVW Käfer 1200 | 5 | 1:90 | Post 037-3-1 + 037-3-2 + 037-3-3 + 037-3-5 jetzt mit Fotos

25.04.2020DetailStill RX 60-80 Gabelstapler | 1:87 | 663A-60-1 Still Auftragsmodell

25.04.2020DetailKrupp SF 380 Tiefladezug | 2 | 1:90 | 504A-13-2 PMS Serie 800 -111-

25.04.2020DetailGmeinder-Kaelble PR 610 Planierraupe | 1:90 | 655L-12-5 Märklin Ladegutmodell

25.04.2020DetailEicher Königstiger | 1:87 | Frontlader 871-7-1 Modellpflege Februar 2020

25.04.2020DetailOpel Rekord P2 Caravan | 1:90 | 071-34-1 Modellpflege Februar 2020

25.04.2020DetailAEG Triebwagen TM | 2 | 1:100 | 750A-7-1 PMS WVM 84

25.04.2020DetailO&K Beiwagen BM | 2 | 1:100 | 749A-4-1 PMS WVM 84

25.04.2020DetailPersonen stehend | 5 | 1:90 | 8879A-4-1 PMS WVM 84

24.04.2020DetailJohn Deere 6920 S | 1 | 1:87 | Frontlader 393-3-2 Modellpflege Februar 2020

24.04.2020DetailMagirus Mercur 125 Drehleiter DL 25 | 3 | 1:160 | Feuerwehr 962-12-1 Modellpflege Februar 2020

24.04.2020DetailMB 540 K Cabriolet | 1:87 | 835-7-1 + 835-7-2 + 835A-7-1 + 835A-7-2 + 835A-8-1 + 835-9-1 jetzt mit Fotos

18.04.2020DetailMAN TGM 13.290 Löschfahrzeug | 2 | 1:87 | Feuerwehr Rosenbauer Auftragsmodell 25 Years AT

18.04.2020DetailBüssing 4500 U Pritschenlastzug | 1:90 | PMS WVM 83 jetzt mit Fotos

18.04.2020DetailLanz D 2016 | 1:87 | Gespann 882A-6-1 PMS WVM 83 jetzt mit Fotos

18.04.2020DetailMB L 6600 Kofferlastzug | 1:87 | 860A-7-1 PMS WVM 81 jetzt mit Fotos

18.04.2020DetailMB LPS 333 Hinterkippersattelzug | 1:90 | 677A-27-1 PMS WVM 81 jetzt mit Fotos

18.04.2020DetailOpel Blitz 1,75 t Pritschen-Lkw | 2 | 1:90 | 352A-11-1 PMS WVM 80 jetzt mit Fotos

18.04.2020DetailMagirus S 3500 Schwerlastzug | 1:90 | 492A-22-1 PMS WVM 80 jetzt mit Fotos

15.04.2020DetailTempo Wiking Pritsche | 1:50 | 223-1-1 + 223A-1-1 jetzt mit Fotos

12.04.2020DetailMagirus S 3500 Tanksattelzug | 1:90 | 800A-34-1 Farbangaben geändert

12.04.2020DetailMagirus Saturn 145 AK 6x6 Stahlpritschenkipper | 1:90 | 673A-26-1 Farbangaben geändert

12.04.2020DetailMB 220 SE Coupé | 1:90 | 146A-6-1 Farbangaben geändert

12.04.2020DetailOpel Blitz 3 t Pritschen-Lkw | 1:87 | 840A-15-6 Farbangaben geändert

12.04.2020DetailPorsche 550 Spyder | 1:90 | 167A-4-2 Farbangaben geändert

12.04.2020DetailDKW F89 Meisterklasse | 2 | 1:90 | 122A-9-1 Farbangaben geändert

12.04.2020DetailVW T1 Panoramabus | 5 | 1:87 | 797-26-3 Modellpflege Februar 2020

12.04.2020DetailOpel Rekord D | 1:87 | 793-4-1 Modellpflege Februar 2020

12.04.2020DetailCitroën 2 CV | 1:87 | offen 809-6-1 Modellpflege Februar 2020

12.04.2020DetailMB 540 K Cabriolet | 1:87 | 835-9-1 Modellpflege Februar 2020

12.04.2020DetailNummernindex aktualisiert

11.04.2020DetailVW T1 Kasten | 3 | 1:90 | Feuerwehr 603V-3-1 jetzt mit neuen Fotos

11.04.2020DetailMB L 319 Kasten | 1:90 | Wasserrettung Feuerwehr 605-1-1 jetzt mit Fotos

11.04.2020DetailMB L 319 Kasten | 1:90 | Wasserrettung Feuerwehr 605-2-1 jetzt mit neuen Fotos

11.04.2020DetailMB L 406 Kasten | 1 | 1:90 | Wasserrettung Feuerwehr 605-3-2 + 605-3-4 jetzt mit Fotos

11.04.2020DetailMB L 406 Kasten | 1 | 1:90 | Wasserrettung Feuerwehr 605L-7-1 jetzt mit neuen Fotos

09.04.2020DetailFerrari 348 ts | 1 | 1:87 | 189A-3-1 + 189A-3-2 + 189A-3-3 PMS Serie 800 -83- jetzt mit Fotos

09.04.2020DetailPorsche 356 1100 Coupé | 1:90 | 160-3-12 + 160-4-1 + 160-4-2 + 160-4-3 + 160-4-4 + 160-4-5 + 160-4-6 jetzt mit Fotos

09.04.2020DetailJohn Deere 6920 S | 1 | 1:87 | Frontlader jetzt mit Fotos

09.04.2020DetailHanomag-Henschel F 221 LNL Kofferlastzug | 1:90 | jetzt mit Fotos

09.04.2020DetailMAN 12.230 Langpritschensattelzug | 1:90 | 517A-14-2 PMS Serie 800 -99- jetzt mit Fotos

09.04.2020DetailMagirus S 3500 Tanksattelzug | 1:90 | 800A-34-1 PMS Serie 800 -89- jetzt mit Fotos

08.04.2020DetailVolvo N 10 Stahlpritschenlastzug | 2 | 1:90 | PMS Serie 800 -109-

05.04.2020DetailLanz D 2016 | 1:87 | Gespann PMS WVM 83

30.03.2020DetailFord Escort 1300 S | 2 | 1:87 | 203A-4-1 jetzt mit Fotos

27.03.2020DetailMB 220 S | 2 | 1:87 | Feuerwehr Blaulichtbeschreibung geändert

27.03.2020DetailMB U 25 | 2 | 1:87 | Feuerwehr Blaulichtbeschreibung geändert

24.03.2020DetailMB L 406 Kasten Hochdach RTW | 1 | 1:90 | 278-1-1 + 278-2-1 + 278-2-2 jetzt mit Fotos

23.03.2020DetailMB L 406 Kasten Hochdach RTW | 1 | 1:90 | Feuerwehr 608-2-1 + 608-3-1 + 608-3-3 jetzt mit Fotos

18.03.2020DetailHanomag L 28 Getränkewagen | 1:90 | PMS Serie 800 -76- jetzt mit Fotos

14.03.2020DetailMB 180 | 2 | 1:90 | 220A-10-12 jetzt mit Foto

14.03.2020DetailVW T1 Kasten | 5 | 1:87 | IG T2 Auftragsmodell

14.03.2020DetailMB LP 333 Pritschen-Lkw | 1:90 | PMS Serie 800 -108-

09.03.2020DetailNummernindex aktualisiert

04.03.2020DetailMAN TGL Pritschenkipper | 1:87 | Modellpflege Februar 2020

04.03.2020DetailVW T1 Pritsche DK | 3 | 1:87 | Modellpflege Februar 2020

02.03.2020DetailMB LS 1513 Pritschensattelzug | 1:90 | Modellpflege Februar 2020

28.02.2020DetailNummernindex aktualisiert

28.02.2020DetailMB NG 2232 Kofferlastzug | 1:90 | überarbeitet

22.02.2020DetailVW T1 Pritsche DK | 1 | 1:90 | 291-5-2 Spielwarenmesse Sondermodell 2020

22.02.2020DetailFord Taunus 12 M 62 | 1:90 | Spielwarenmesse Auftragsmodell 2020

20.02.2020DetailKaelble KV 34 Muldenkipper | 1:90 | Lechtoys Auftragsmodell Edition 54

18.02.2020DetailMB 190 SL Roadster | 1:90 | Saure Auftragsmodell 82. Auktion

16.02.2020DetailNummernindex aktualisiert

13.02.2020DetailNummernindex aktualisiert

10.02.2020DetailTransportkiste | 3 | 1:87 | überarbeitet

10.02.2020DetailTransportkiste | 2 | 1:87 | Lechtoys Auftragsmodell

08.02.2020DetailCouch | 1:90 | Ostermann Auftragsmodell

08.02.2020DetailCouchtisch | 1:90 | Ostermann Auftragsmodell

08.02.2020DetailKleiderschrank | 1:90 | Ostermann Auftragsmodell

08.02.2020DetailSessel | 1:90 | Ostermann Auftragsmodell

08.02.2020DetailWohnzimmerschrank | 1:90 | Ostermann Auftragsmodell

07.02.2020DetailKässbohrer Setra Reisebus S 8 | 1:90 | PMS WVM 82

07.02.2020DetailMB L 6600 Kofferlastzug | 1:87 | PMS WVM 81

07.02.2020DetailMB LPS 333 Hinterkippersattelzug | 1:90 | PMS WVM 81

06.02.2020DetailMagirus S 3500 Schwerlastzug | 1:90 | PMS WVM 80

06.02.2020DetailOpel Blitz 1,75 t Pritschen-Lkw | 2 | 1:90 | PMS WVM 80

02.02.2020DetailMB LP 333 Pritschen-Lkw | 1:90 | PMS Serie 800 -107-

21.01.2020DetailNummernindex aktualisiert

21.01.2020DetailFord Capri 2300 GT XL | 1:87 | 821A-5-1 MAN+HUMMEL Auftragsmodell jetzt mit Fotos

18.01.2020DetailVW T2 Pritsche EK | 1:90 | 316A-7-13 Wasmus Auftragsmodell

17.01.2020DetailBauwagen | 1 | 1:87 | 656A-10-3 Wasmus Auftragsmodell

13.01.2020DetailVW 1600 Variant | 2 | 1:90 | Notarzt DRK 070-8-1 + 070-8-5 jetzt mit Fotos

10.01.2020DetailVolvo 244 DLS | 1:90 | 264PA-8-1 Pseudo-Auftragsmodell Mac Hessen

10.01.2020DetailZementsack | 1 | 1:87 | 1202-4-2 Modellpflege Dezember 2019

09.01.2020DetailAuslaufmodelle Protokoll Jahresangaben aller aufgeführten Modelle aktualisiert

05.01.2020DetailVW T1 Kasten | 9 | 1:87 | 788A-5-4 Vedes Auftragsmodell

05.01.2020DetailLemken Drillmaschine Solitair 25 | 1:87 | 378A-5-2 Lemken Auftragsmodell

05.01.2020DetailMB U 70 | 1:90 | 370A-18-2 jetzt mit Fotos

04.01.2020DetailSchlüter Super 1250 VL | 1:87 | 875-2-2 Bestandteil Wiking Sonderpackung

04.01.2020DetailScania 111 LB Langpritschensattelzug | 1:90 | 533-9-1 Modellpflege Dezember 2019

04.01.2020DetailOpel Blitz 1,75 t Koffer-Lkw | 2 | 1:90 | 354-10-1 Modellpflege Dezember 2019

04.01.2020DetailMB LS 321 Straßenroller | 1:90 | 590-27-1 Modellpflege Dezember 2019

01.01.2020DetailLand Rover Serie II 88 | 2 | 1:160 | 923-1-3 Modellpflege Dezember 2019

01.01.2020DetailVW T1 Kasten | 9 | 1:87 | 788-5-7 Modellpflege Dezember 2019

01.01.2020DetailVW T2 Pritsche DK | 1:87 | 314-3-1 Modellpflege Dezember 2019

01.01.2020DetailBrantner DD 24060/2 Dreiseitenkipper | 1:87 | 388-25-1 Modellpflege Dezember 2019

2019


29.12.2019DetailMB U 70 | 1:90 | Gespann Der kleine Wiking-Laden Auftragsmodell

25.12.2019DetailVW T1 Pritsche DK | 3 | 1:87 | Idee & Spiel Auftragsmodell

25.12.2019DetailZapfstelle | 2 | 1:90 | Idee & Spiel Auftragsmodell

25.12.2019DetailVolvo N 10 Stahlpritschen-Lkw | 1:90 | Idee & Spiel Auftragsmodell

25.12.2019DetailFendt 942 Vario | 1:32 | Fendt Auftragsmodell

25.12.2019DetailFendt 942 Vario | 1:87 | Fendt Auftragsmodell

24.12.2019DetailLanz D 2016 | 1:87 | MANN+HUMMEL Auftragsmodell

24.12.2019DetailMB NG 1628 S Langpritschensattelzug | 1:90 | Fleischmann Ladegutmodell jetzt mit Fotos

24.12.2019DetailMB NG 1628 Pritschenlastzug | 1:90 | 455L-11-1 Fleischmann Ladegutmodell jetzt mit Fotos

22.12.2019DetailVW T1 Pritsche DK | 1 | 1:90 | 10x als PMS-Auftragsmodell im Händlerkarton

21.12.2019DetailMB U 1700 L | 1:87 | Lechtoys Auftragsmodell Edition 53

21.12.2019DetailMB SK 2538 Pritschenlastzug | 1:87 | Mercedes-Benz Auftragsmodell 456A-6-2 jetzt mit Fotos

21.12.2019DetailMB NG 2235 Pritschenlastzug | 1:90 | Mercedes-Benz Auftragsmodell 456A-4-3 jetzt mit Fotos

21.12.2019DetailScania 111 LB Langpritschensattelzug | 1:90 | Fleischmann-Ladegut 533L-8-1 jetzt mit Fotos

21.12.2019DetailMB NG 1635 S Langpritschensattelzug | 1:90 | Fleischmann-Ladegut 515L-12-1 jetzt mit Fotos

21.12.2019DetailVolvo F 89 Tanksattelzug | 1:90 | Auftragsmodell Reinhardt

17.12.2019DetailVW Amarok | 1:87 | Polizei Modellpflege Dezember

15.12.2019DetailMB L 5000 Koffer-Lkw | 2 | 1:90 | PMS Serie 800 -105-

15.12.2019DetailMB L 911 Pritschen-Lkw | 1:90 | Aufsetztank PMS Serie 800 -105-

14.12.2019DetailMAN 19.361 U Pritschenlastzug | 1:90 | Modellpflege Dezember

14.12.2019DetailBüssing 4500 U Pritschen-Lkw | 2 | 1:90 | Modellpflege Dezember jetzt mit Fotos

10.12.2019DetailMB 300 SL Roadster | 2 | 1:87 | 834-13-2 jetzt mit Fotos

08.12.2019DetailNummernindex aktualisiert

07.12.2019DetailVW T1 Bus | 8 | 1:87 | Sondermodell 1 zur Agritechnica 2019

07.12.2019DetailKrampe Big Body 650 S Zweiseitenkipper | 1:32 | Sondermodell 2 zur Agritechnica 2019

06.12.2019DetailVW T1 Bus | 4 | 1:87 | 797-28-1 jetzt mit Fotos

06.12.2019DetailKrupp-Ardelt Raupenseilbagger RU 25 | 1:90 | Collect & Invest Auftragsmodell

01.12.2019DetailMB NG 2232 Kofferlastzug | 1:90 | Version 3 jetzt mit Fotos

30.11.2019DetailMB L 2500 Koffer-Lkw | 2 | 1:160 | 944-58-1 + 944-58-2 jetzt mit Fotos

29.11.2019DetailHanomag L 28 Pritschen-Lkw | 2 | 1:90 | THW jetzt mit Fotos

29.11.2019DetailScania 111 LBT Containersattelzug | 1 | 1:90 | 520-44-2 jetzt mit Foto

28.11.2019DetailScania 111 LB Flüssiggastanksattelzug | 1:90 | jetzt mit Foto

28.11.2019DetailScania 111 LB Koffersattelzug | 1 | 1:90 | 512-5-3 jetzt mit Foto

28.11.2019DetailScania 111 LB Koffersattelzug | 2 | 1:90 | 546-1-1 jetzt mit Foto

28.11.2019DetailScania 111 LBT Koffersattelzug | 1:90 | 520-46-3 + 520-46-4 + 520-46-5 jetzt mit Foto

28.11.2019DetailScania 111 LBT Containersattelzug | 1 | 1:90 | 520-32-1 jetzt mit Foto

28.11.2019DetailScania 111 LBT Containersattelzug | 1 | 1:90 | 520-43-2 jetzt mit Foto

28.11.2019DetailScania 111 LBT Containersattelzug | 1 | 1:90 | 520-44-3 jetzt mit Foto

28.11.2019DetailScania 111 LBT Containersattelzug | 1 | 1:90 | 520-44-4 jetzt mit Foto

28.11.2019DetailScania 110 LBT Pritschenlastzug | 1:90 | 460-8-1 jetzt mit Foto

28.11.2019DetailScania 111 LB Pritschenlastzug | 1:90 | jetzt mit Foto

27.11.2019DetailMB NG 2232 Kofferlastzug | 1:90 | Version 2 jetzt mit Fotos

26.11.2019DetailBüssing 4500 U Pritschen-Lkw | 2 | 1:90 | Modellpflege Dezember

22.11.2019DetailMAN TGL Löschfahrzeug | 1:87 | Feuerwehr alle Versionen jetzt mit neuen Fotos

19.11.2019DetailVanwall VW5 | 1:90 | Saure Auftragsmodell 81. Auktion

18.11.2019DetailBüssing Trambus TU 5000 | 1:90 | PMS Serie 800 -93- Auftragsmodell jetzt mit Fotos

17.11.2019DetailMAN TGM 15.290 Löschfahrzeug | 2 | 1:87 | Feuerwehr 612A-3-6 Rosenbauer Auftragsmodell Slowenien

17.11.2019DetailMAN TGM 15.290 Löschfahrzeug | 2 | 1:87 | Feuerwehr 612A-3-5 Rosenbauer Auftragsmodell jetzt mit Fotos

16.11.2019DetailMB LPS 334 Silosattelzug | 1:90 | ModellCarService Auftragsmodell

16.11.2019DetailNummernindex aktualisiert

15.11.2019DetailMB LP 1620 Pritschenlastzug | 1 | 1:90 | Wasmus Auftragsmodell

15.11.2019DetailMB LPS 1620 Silosattelzug | 1:90 | Wasmus Auftragsmodell

15.11.2019DetailDemag V 70 BL Mobilkran | 1:90 | Collect & Invest Auftragsmodell

15.11.2019DetailOpel Commodore A Coupé | 1:90 | Collect & Invest Auftragsmodell

14.11.2019DetailMB L 1513 Autokran | 1:90 | Feuerwehr jetzt mit Fotos

11.11.2019DetailMB LP 333 Pritschen-Lkw | 1:90 | PMS WVM 79 jetzt mit Fotos

11.11.2019DetailMB LS 1513 Tanksattelzug | 1:90 | PMS WVM 79 jetzt mit Fotos

11.11.2019DetailVW T1 Bus | 3 | 1:90 | Polizei PMS WVM 79 jetzt mit Fotos

03.11.2019DetailMB LPS 334 Rungensattelzug | 1:90 | SammlerKontor Auftragsmodell

03.11.2019DetailOpel Rekord C Coupé | 2 | 1:160 | 910-48-1 jetzt mit Fotos

03.11.2019DetailChevrolet Chevelle Malibu Coupé | 2 | 1:160 | 910-28-1 jetzt mit Fotos

03.11.2019DetailVW T2 Kasten | 2 | 1:160 | 930-64-1 jetzt mit Fotos

03.11.2019DetailVW Käfer 1500 | 1:160 | 910-70-1 jetzt mit Fotos

02.11.2019DetailMB NG 1632 Pritschenlastzug | 1 | 1:90 | 455-5-2 jetzt mit Fotos

01.11.2019DetailKrupp Titan Kofferlastzug | 1:87 | 891A-7-1 jetzt mit Fotos

01.11.2019DetailBüssing 8000 Kofferlastzug | 1 | 1:90 | PMS Serie 800 -87- jetzt mit Fotos

01.11.2019DetailKrupp SF 806 Flüssiggastanksattelzug | 1:90 | jetzt mit Fotos

01.11.2019DetailVW-Porsche 914 | 1:87 | 792-1-8 jetzt mit Fotos

01.11.2019DetailMagirus Mercur 120 L Kofferlastzug | 1:87 | 855A-12-1 jetzt mit Fotos

01.11.2019DetailMB SK 2544 Getränkekofferlastzug | 1:87 | 561A-3-2 jetzt mit Fotos

01.11.2019DetailMB NG 1617 Pritschen-Lkw | 1:90 | 420-16-1 jetzt mit Fotos

29.10.2019DetailWiking Magazin 2019

29.10.2019DetailMB U 32 | 2 | 1:160 | Modellpflege Oktober

29.10.2019DetailMB LP 321 Pritschenlastzug | 1:90 | Modellpflege Oktober

29.10.2019DetailMB LP 333 Pritschen-Lkw | 1:90 | PMS WVM 79

29.10.2019DetailMB LS 1513 Tanksattelzug | 1:90 | PMS WVM 79

29.10.2019DetailVW T1 Bus | 3 | 1:90 | Polizei PMS WVM 79

29.10.2019DetailMB 300 SL Roadster | 2 | 1:87 | Modellpflege Oktober

28.10.2019DetailRosenbauer Panther 4 6x6 FLF | 2 | 1:87 | Feuerwehr Rosenbauer Auftragsmodell Panter Japan

28.10.2019DetailABG Alexander 128 Straßenwalze | 1:87 | PMS DLBJ 17 jetzt mit Fotos

28.10.2019DetailMB L 319 Kasten | 1:90 | Modellpflege Oktober

28.10.2019DetailClaas Arion 640 | 2 | 1:87 | Modellpflege Oktober

28.10.2019DetailKrampe HP 20 Halfpipe Muldenkipp-Anhänger | 1:87 | Modellpflege Oktober

27.10.2019DetailVW-Porsche 914 | 1:87 | Modellpflege Oktober

27.10.2019DetailOpel Blitz 1,75 t Getränkewagen | 2 | 1:90 | Modellpflege Oktober

27.10.2019DetailBMW 2002 | 1:87 | Modellpflege Oktober

27.10.2019DetailHanomag R 16 Schlepper | 2 | 1:87 | Mähwerk Modellpflege Oktober

27.10.2019DetailMagirus S 3500 Pritschensattelzug | 1:90 | PMS Serie 800 -62- jetzt mit Fotos

27.10.2019DetailMagirus S 3500 Schwerlastzug | 1:90 | jetzt mit Fotos

18.10.2019DetailLastpritsche | 1 | 1:90 | 1384-1-2 jetzt mit Fotos

18.10.2019DetailLastpritsche | 1 | 1:90 | 1384-1-3 jetzt mit Fotos

18.10.2019DetailLastpritsche | 1 | 1:90 | 1384-1-4 jetzt mit Fotos

18.10.2019DetailLastpritsche | 1 | 1:90 | 1384L-2-2 jetzt mit Fotos

18.10.2019DetailMB NG 1626 S Pritschensattelzug | 4 | 1:90 | jetzt mit Fotos

18.10.2019DetailCitroën DS 21 Pallas | 1 | 1:90 | Auftragsmodell Spielwarenmesse 2012 jetzt mit Fotos

15.10.2019DetailMagirus 156 D 15 S Kühlkoffersattelzug | 1:90 | jetzt mit Fotos

12.10.2019DetailBüssing Trambus Senator | 1:90 | Region im Modell Auftragsmodell

12.10.2019DetailMAN 22.321 UNL Pritschenlastzug | 1:90 | Veltins Auftragsmodell jetzt mit Fotos

12.10.2019DetailVW T1 Kasten | 9 | 1:87 | Dachgepäckträger Post PMS Serie 800 -84- jetzt mit Fotos

12.10.2019DetailVW T1 Bus | 8 | 1:87 | Antenne PMS Serie 800 -84- jetzt mit Fotos

12.10.2019DetailMAN 12.230 Langpritschensattelzug | 1:90 | PMS Serie 800 -103- jetzt mit Fotos

12.10.2019DetailNummernindex aktualisiert

08.10.2019DetailKrupp SF 380 Tiefladezug | 2 | 1:90 | 504A-13-1 Auftragsmodell PMS DLBJ 17

08.10.2019DetailABG Alexander 128 Straßenwalze | 1:87 | 650A-14-1 Auftragsmodell PMS DLBJ 17

06.10.2019DetailMAN TGM 15.290 Löschfahrzeug | 2 | 1:87 | Feuerwehr 612A-3-5 Auftragsmodell Rosenbauer

06.10.2019DetailMB NG 1626 S Pritschensattelzug | 4 | 1:90 | Auftragsmodell Lechtoys Edition 52

06.10.2019DetailMB U 32 | 1 | 1:90 | Gespann Auftragsmodell Lechtoys Edition 51

06.10.2019DetailMB 250 SL Roadster | 1:87 | Hardtop Auftragsmodell Collect & Invest

06.10.2019DetailMB LPS 334 Rungensattelzug | 1:90 | Auftragsmodell ModellCarService

05.10.2019DetailNummernindex aktualisiert

05.10.2019DetailMB L 406 RTW | 1 | 1:90 | Feuerwehr 608A-12-1 jetzt mit Fotos

30.09.2019DetailVW T1 Kasten | 4 | 1:90 | SammlerKontor Auftragsmodell

30.09.2019DetailVW Käfer 1200 Brezel | 8 | 1:87 | Modellauto Wanner Auftragsmodell jetzt mit Fotos

30.09.2019DetailVW T1 Kasten | 9 | 1:87 | Vedes Auftragsmodell

29.09.2019DetailMAN 635 F Tankwagen | 1:90 | PMS Serie 800 -61- jetzt mit Fotos

29.09.2019DetailMB LPS 2223 Tanksattelzug | 1:90 | 802-5-2 jetzt mit Fotos

29.09.2019DetailMB LPS 334 Solozugmaschine | 1:90 | Lastpritsche PMS GME 2019 jetzt mit Fotos

29.09.2019DetailMB L 6600 K Pritschenkipper | 1:87 | PMS GME 2019 jetzt mit Fotos

29.09.2019DetailMB LP 321 Pritschen-Lkw | 1:90 | PMS Serie 800 -100- jetzt mit Fotos

29.09.2019DetailMB U 70 | 1:90 | PMS Serie 800 -100- jetzt mit Fotos

28.09.2019DetailVW Käfer 1302 LS Cabriolet | 1:90 | 033-11-2 jetzt mit Fotos

28.09.2019DetailVW Käfer 1302 LS Cabriolet | 1:90 | 033-12-3 jetzt mit Fotos

28.09.2019DetailVW Käfer 1302 LS Cabriolet | 1:90 | 033-12-5 jetzt mit Fotos

28.09.2019DetailVW Käfer 1302 LS Cabriolet | 1:90 | 033-12-6 jetzt mit Fotos

28.09.2019DetailVW Käfer 1302 LS Cabriolet | 1:90 | 033-13-3 jetzt mit Fotos

28.09.2019DetailVW Käfer 1302 LS Cabriolet | 1:90 | 033-13-5 jetzt mit Fotos

28.09.2019DetailVW Käfer 1302 LS Cabriolet | 1:90 | 033A-17-2 jetzt mit Fotos

28.09.2019DetailVW Käfer 1302 LS Cabriolet | 1:90 | 033A-18-1 jetzt mit Fotos

28.09.2019DetailVW Käfer 1302 LS Cabriolet | 1:90 | 033A-19-1 jetzt mit Fotos

28.09.2019DetailVW Käfer 1302 LS Cabriolet | 1:90 | 033A-19-2 jetzt mit Fotos

28.09.2019DetailVW Käfer 1302 LS Cabriolet | 1:90 | 033A-21-1 jetzt mit Fotos

28.09.2019DetailMAN 12.230 Langpritschensattelzug | 1:90 | PMS Serie 800 -103-

28.09.2019DetailMB LP 2223 Pritschen-Lkw | 1:90 | PMS Serie 800 -102-

26.09.2019DetailMB L 321 Koffer-Lkw | 1:90 | PMS WVM 77 jetzt mit Fotos

26.09.2019DetailMB LP 321 Pritschenlastzug | 1:90 | Gitteraufsatz PMS WVM 77 jetzt mit Fotos

26.09.2019DetailCitroën 2 CV | 1:87 | geschlossen PMS WVM 77 jetzt mit Fotos

25.09.2019DetailMB U 70 | 1:90 | PMS DLBJ 16 jetzt mit Fotos

25.09.2019DetailVolvo N 10 Stahlpritschenlastzug | 2 | 1:90 | PMS DLBJ 16 jetzt mit Fotos

24.09.2019DetailMB 207 D Kasten | 1:87 | PMS DLBJ 16 jetzt mit Fotos

23.09.2019DetailVW-Porsche 914 | 1:87 | 792A-1-1 Auftragsmodell jetzt mit Fotos

22.09.2019DetailPorsche 356 C 1600 SC Coupé | 1:87 | 814-2-3 Sondermodell zur IAA 2001 jetzt mit Fotos

22.09.2019DetailPorsche 356 C 1600 SC Coupé | 1:87 | 814A-4-1 Fulda Auftragsmodell jetzt mit Fotos

21.09.2019DetailPorsche 356 C 1600 SC Coupé | 1:87 | 814A-5-2 SammlerKontor Auftragsmodell jetzt mit Fotos

21.09.2019DetailMAN 19.361 U Pritschenlastzug | 1:90 | Schmidt Auftragsmodell jetzt mit Fotos

17.09.2019DetailMB 180 | 2 | 1:90 | MANN+HUMMEL Auftragsmodell

15.09.2019DetailNummernindex aktualisiert

15.09.2019DetailMAN 12.230 FS Pritschensattelzug | 1:90 | jetzt mit Fotos

15.09.2019DetailPlywoodcontainer 20' | 1 | 1:90 | 1525A-2-2 jetzt mit Fotos

15.09.2019DetailMB LS 1113 Containersattelzug | 1:90 | 526A-3-5 mit neuen Fotos

15.09.2019DetailVW Käfer 1200 Brezel | 8 | 1:87 | Modellauto Wanner Auftragsmodell

14.09.2019DetailVW T1 Campingbus | 1:87 | Modellpflege August

14.09.2019DetailVW T3 Kasten Hochdach | 1:87 | Post jetzt mit Fotos

14.09.2019DetailMAN 16.192 F Pritschenlastzug | 1:90 | 424-10-2 jetzt mit Fotos

14.09.2019DetailMAN 16.192 F Pritschenlastzug | 1:90 | Post jetzt mit Fotos

07.09.2019DetailNummernindex aktualisiert

07.09.2019DetailIveco EuroCargo Pritschen-Lkw | 1:87 | Auftragsmodell Smilestones

02.09.2019DetailVW 181 | 1:90 | offen Auftragsmodell 181 wird 50

01.09.2019DetailLand Rover Defender 110 CSW | 1:87 | Modellpflege August

01.09.2019DetailMB LP 321 Pritschen-Lkw | 1:90 | PMS Serie 800 + GME 2019

01.09.2019DetailMB LPS 334 Tiefladesattelzug | 1:90 | PMS Serie 800

01.09.2019DetailMAN 12.230 Langpritschensattelzug | 1:90 | PMS Serie 800

01.09.2019DetailHako Citymaster 300 | 1:87 | Modellpflege August

01.09.2019DetailPorsche 356 A 1600 Cabriolet | 1:90 | offen Auktionshaus Saure Auftragsmodell

01.09.2019DetailVW T1 Pritsche EK | 2 | 1:90 | Sammlerkontor Auftragsmodell

01.09.2019DetailMB LP 1620 Pritschenlastzug | 2 | 1:90 | Modellpflege August

01.09.2019DetailMagirus 150 D 10 A Tanklöschfahrzeug TLF 16 | 1:87 | Feuerwehr Modellpflege August

31.08.2019DetailNummernindex aktualisiert

31.08.2019DetailDKW Geländewagen F 91/4 | 1:90 | überarbeitet

31.08.2019DetailDKW Geländewagen F 91/4 | 1:90 | Militär überarbeitet

31.08.2019DetailDKW Geländewagen F 91/4 | 1:90 | Polizei überarbeitet

31.08.2019DetailDKW Geländewagen F 91/4 | 1:90 | THW überarbeitet

31.08.2019DetailPorsche 550 Spyder | 1:90 | überarbeitet

31.08.2019DetailOpel Rekord C Coupé | 2 | 1:160 | Modellpflege August

31.08.2019DetailChevrolet Chevelle Malibu Coupé | 2 | 1:160 | Modellpflege August

31.08.2019DetailVW T2 Kasten | 2 | 1:160 | Modellpflege August

31.08.2019DetailVW Käfer 1300 | 4 | 1:160 | Modellpflege August

26.08.2019DetailMB LPB 2223 Betonmischer | 1:90 | Modellpflege August

26.08.2019DetailHenschel HS 3-180 TAK Muldenkipper | 1:87 | jetzt mit Fotos

25.08.2019DetailMagirus Sirius L Pritschen-Lkw | 1:90 | 426-6-3 Modellpflege August

25.08.2019DetailOpel Blitz 1,75 t Pritschen-Lkw | 2 | 1:90 | Modellpflege August

25.08.2019DetailAustin Seven | 1:87 | Modellpflege August

25.08.2019DetailMagirus 232 D 22 AK Stahlpritschenkipper | 1:90 | Modellpflege August

24.08.2019DetailMagirus S 3500 Schwerlastzug | 1:90 | Modellpflege August

24.08.2019DetailMB LP 321 Pritschen-Lkw | 1:90 | Aufsetztank Modellpflege August

24.08.2019DetailMagirus Sirius L Pritschen-Lkw | 1:90 | 426-6-2 Modellpflege August

24.08.2019DetailKässbohrer Setra Reisebus S 8 | 1:90 | Auftragsmodell 10 Jahre Wikingtreffpunkt

24.08.2019DetailCitroën 2 CV | 1:87 | geschlossen PMS WVM 77

24.08.2019DetailMB LP 321 Pritschenlastzug | 1:90 | Gitteraufbau PMS WVM 77

24.08.2019DetailMB L 321 Koffer-Lkw | 1:90 | PMS WVM 77

24.08.2019DetailOpel Blitz 3 t Koffer-Lkw | 1:87 | Feuerwehr PMS WVM 78

24.08.2019DetailHenschel HS 3-125 TS Pritschensattelzug | 1:90 | PMS WVM 78

24.08.2019DetailMB 190 SL Coupé | 1:90 | PMS WVM 78

06.08.2019DetailMB LP 1313 Kasten-/Kofferlastzug | 1:90 | überarbeitet

Juli 2019 = System-Upgrade Board-Software